AA7F Weather Reports


time (UTC)temp
F
wind
direction
speed
knots
gust
knots
rain 1hr
in
rain 24hr
in
rain mn
in
humidity
%
barometer
mb
20220524025217 61 46 1.7 2.6 0.00 0.00 0.00 55 1015.4
20220524024718 61 46 2.6 2.6 0.00 0.00 0.00 52 1015.5
20220524024217 62 50 1.7 1.7 0.00 0.00 0.00 50 1015.5
20220524023716 62 50 1.7 1.7 0.00 0.00 0.00 55 1015.5
20220524023216 63 41 1.7 1.7 0.00 0.00 0.00 52 1015.7
20220524022715 64 47 0.9 1.7 0.00 0.00 0.00 49 1015.8
20220524022214 67 44 0.9 0.9 0.00 0.00 0.00 44 1015.5
20220524021713 66 44 0.0 0.9 0.00 0.00 0.00 43 1015.8
20220524021212 67 38 0.9 0.9 0.00 0.00 0.00 44 1015.8
20220524020710 67 45 0.0 1.7 0.00 0.00 0.00 43 1015.6
20220524020209 67 46 0.0 0.0 0.00 0.00 0.00 41 1015.7
20220524015708 66 46 0.0 0.9 0.00 0.00 0.00 45 1015.8
20220524015208 66 28 0.9 1.7 0.00 0.00 0.00 44 1016.0
20220524014708 67 40 0.9 0.9 0.00 0.00 0.00 44 1015.9
20220524014208 66 43 0.0 1.7 0.00 0.00 0.00 44 1016.1
20220524013708 66 46 0.0 0.9 0.00 0.00 0.00 42 1016.1
20220524013207 66 57 1.7 1.7 0.00 0.00 0.00 45 1015.9
20220524012706 65 50 0.9 1.7 0.00 0.00 0.00 50 1015.9
20220524012205 66 47 0.9 1.7 0.00 0.00 0.00 50 1016.0
20220524011703 64 58 1.7 2.6 0.00 0.00 0.00 52 1015.9
20220524011202 64 54 0.9 1.7 0.00 0.00 0.00 56 1016.3
20220524010700 64 62 1.7 1.7 0.00 0.00 0.00 52 1016.1
20220524010159 64 56 0.9 1.7 0.00 0.00 0.00 48 1016.1
20220524005657 64 54 0.0 1.7 0.00 0.00 0.00 49 1016.3
20220524005156 64 65 0.9 1.7 0.00 0.00 0.00 44 1016.6
20220524004654 64 64 0.9 0.9 0.00 0.00 0.00 48 1016.6
20220524004153 64 65 0.9 1.7 0.00 0.00 0.00 46 1016.7
20220524003651 64 80 0.9 1.7 0.00 0.00 0.00 48 1016.7
20220524003150 64 84 1.7 1.7 0.00 0.00 0.00 51 1016.6
20220524002649 65 59 0.9 0.9 0.00 0.00 0.00 51 1016.8
20220524002148 64 60 0.0 0.9 0.00 0.00 0.00 47 1016.7
20220524001647 64 72 0.9 0.9 0.00 0.00 0.00 51 1016.8
20220524001146 64 56 0.0 0.9 0.00 0.00 0.00 46 1016.8
20220524000644 64 45 0.9 1.7 0.00 0.00 0.00 52 1016.9
20220524000144 64 50 0.9 4.3 0.00 0.00 0.00 44 1016.8
20220523235642 63 268 3.5 6.1 0.00 0.00 0.00 52 1017.1
20220523235140 63 283 3.5 5.2 0.00 0.00 0.00 51 1017.3
20220523234638 64 327 5.2 7.0 0.00 0.00 0.00 54 1016.9
20220523234137 64 287 4.3 7.0 0.00 0.00 0.00 50 1016.9
20220523233635 64 271 4.3 6.1 0.00 0.00 0.00 47 1016.9
20220523233134 65 262 2.6 5.2 0.00 0.00 0.00 49 1016.9
20220523232633 65 253 4.3 6.1 0.00 0.00 0.00 46 1017.0
20220523232132 65 235 4.3 6.1 0.00 0.00 0.00 48 1017.0
20220523231632 65 273 4.3 7.8 0.00 0.00 0.00 47 1017.0
20220523231131 65 274 3.5 6.1 0.00 0.00 0.00 48 1017.0
20220523230630 65 270 5.2 7.0 0.00 0.00 0.00 47 1017.1
20220523230129 65 22 2.6 4.3 0.00 0.00 0.00 52 1017.2
20220523225629 64 310 2.6 5.2 0.00 0.00 0.00 49 1017.1
20220523225128 65 296 4.3 7.8 0.00 0.00 0.00 49 1017.2
20220523224627 65 239 6.1 8.7 0.00 0.00 0.00 46 1017.2
20220523224126 65 251 5.2 7.0 0.00 0.00 0.00 45 1017.3
20220523223625 66 260 5.2 7.0 0.00 0.00 0.00 46 1017.1
20220523223124 66 243 5.2 7.0 0.00 0.00 0.00 44 1017.5
20220523222623 66 277 6.1 8.7 0.00 0.00 0.00 40 1017.6
20220523222122 66 287 5.2 8.7 0.00 0.00 0.00 45 1017.4
20220523221621 65 298 5.2 7.8 0.00 0.00 0.00 47 1017.5
20220523221120 65 259 7.0 7.8 0.00 0.00 0.00 42 1017.6
20220523220618 65 308 6.1 8.7 0.00 0.00 0.00 42 1017.4
20220523220117 66 270 7.0 8.7 0.00 0.00 0.00 40 1017.3
20220523215616 66 258 6.1 7.8 0.00 0.00 0.00 43 1017.6
20220523215114 65 255 6.1 7.8 0.00 0.00 0.00 43 1017.8
20220523214614 65 255 6.1 9.6 0.00 0.00 0.00 41 1017.6
20220523214113 65 294 4.3 8.7 0.00 0.00 0.00 47 1017.5
20220523213611 66 242 7.0 7.8 0.00 0.00 0.00 44 1017.6
20220523213111 66 219 5.2 7.0 0.00 0.00 0.00 44 1017.8
20220523212611 66 330 4.3 5.2 0.00 0.00 0.00 49 1017.5
20220523212110 66 290 4.3 7.8 0.00 0.00 0.00 48 1017.4
20220523211610 66 294 3.5 6.1 0.00 0.00 0.00 48 1017.6
20220523211109 66 299 4.3 6.1 0.00 0.00 0.00 46 1017.6
20220523210610 65 297 3.5 6.1 0.00 0.00 0.00 51 1017.6
20220523210109 65 263 5.2 7.0 0.00 0.00 0.00 52 1017.6
20220523205608 65 293 7.0 8.7 0.00 0.00 0.00 53 1017.7
20220523205107 66 301 5.2 8.7 0.00 0.00 0.00 52 1017.7
20220523204605 66 244 5.2 11.3 0.00 0.00 0.00 51 1017.7
20220523204104 65 265 4.3 6.1 0.00 0.00 0.00 54 1017.7
20220523203603 65 242 4.3 7.0 0.00 0.00 0.00 55 1017.8
20220523203102 65 285 5.2 7.8 0.00 0.00 0.00 54 1017.8
20220523202601 65 262 6.1 7.0 0.00 0.00 0.00 50 1017.8
20220523202100 65 286 3.5 4.3 0.00 0.00 0.00 54 1017.8
20220523201558 67 237 4.3 5.2 0.00 0.00 0.00 53 1018.1
20220523201058 65 269 2.6 6.1 0.00 0.00 0.00 52 1017.9
20220523200556 65 300 2.6 7.0 0.00 0.00 0.00 59 1018.0
20220523200054 65 254 4.3 5.2 0.00 0.00 0.00 59 1018.2
20220523195553 64 312 2.6 5.2 0.00 0.00 0.00 56 1018.2
20220523195052 64 250 2.6 4.3 0.00 0.00 0.00 57 1018.2
20220523194553 63 285 3.5 5.2 0.00 0.00 0.00 58 1018.2
20220523194051 64 271 4.3 7.0 0.00 0.00 0.00 56 1018.6
20220523193551 65 308 2.6 7.0 0.00 0.00 0.00 59 1018.6
20220523193049 65 46 1.7 5.2 0.00 0.00 0.00 55 1018.4
20220523192548 65 311 2.6 5.2 0.00 0.00 0.00 51 1018.6
20220523192047 66 236 3.5 4.3 0.00 0.00 0.00 53 1018.7
20220523191546 65 105 2.6 4.3 0.00 0.00 0.00 52 1018.8
20220523191045 67 125 3.5 4.3 0.00 0.00 0.00 49 1018.8
20220523190543 66 106 2.6 2.6 0.00 0.00 0.00 52 1018.9
20220523190041 66 97 1.7 4.3 0.00 0.00 0.00 55 1018.8
20220523185539 65 143 2.6 5.2 0.00 0.00 0.00 59 1018.6
20220523185038 66 111 2.6 5.2 0.00 0.00 0.00 58 1019.1
20220523184538 64 69 1.7 4.3 0.00 0.00 0.00 61 1019.0
20220523184038 64 145 2.6 6.1 0.00 0.00 0.00 61 1019.0
20220523183538 63 112 3.5 6.1 0.00 0.00 0.00 59 1018.9
20220523183036 62 117 4.3 7.0 0.00 0.00 0.00 58 1019.0
20220523182536 62 104 3.5 5.2 0.00 0.00 0.00 61 1019.1
20220523182035 62 94 2.6 4.3 0.00 0.00 0.00 62 1019.2
20220523181533 62 77 4.3 7.0 0.00 0.00 0.00 60 1019.1
20220523181032 62 84 2.6 5.2 0.00 0.00 0.00 60 1019.4
20220523180530 61 83 4.3 6.1 0.00 0.00 0.00 64 1019.2
20220523180028 60 119 3.5 7.0 0.00 0.00 0.00 61 1019.4
20220523175526 60 136 4.3 6.1 0.00 0.00 0.00 63 1019.4
20220523175025 60 133 2.6 7.0 0.00 0.00 0.00 62 1019.5
20220523174524 59 135 4.3 7.0 0.00 0.00 0.00 65 1019.5
20220523174023 60 111 4.3 7.0 0.00 0.00 0.00 65 1019.6
20220523173522 58 113 6.1 7.8 0.00 0.00 0.00 67 1019.6
20220523173021 59 96 4.3 7.0 0.00 0.00 0.00 67 1019.8
20220523172520 58 79 2.6 7.0 0.00 0.00 0.00 69 1019.7
20220523172020 57 70 7.0 8.7 0.00 0.00 0.00 67 1019.9
20220523171519 57 97 4.3 7.8 0.00 0.00 0.00 69 1019.9
20220523171018 56 95 6.1 9.6 0.00 0.00 0.00 67 1020.0
20220523170516 56 113 4.3 7.8 0.00 0.00 0.00 69 1020.0
20220523170017 55 115 7.0 8.7 0.00 0.00 0.00 68 1020.1
20220523165515 55 57 4.3 6.1 0.00 0.00 0.00 70 1020.0
20220523165013 55 127 6.1 8.7 0.00 0.00 0.00 70 1020.1
20220523164512 54 94 7.0 7.8 0.00 0.00 0.00 70 1020.0
20220523164011 54 100 7.0 9.6 0.00 0.00 0.00 70 1020.1
20220523163509 54 104 7.0 9.6 0.00 0.00 0.00 70 1020.3
20220523163009 53 132 6.1 8.7 0.00 0.00 0.00 72 1020.0
20220523162509 53 131 6.1 9.6 0.00 0.00 0.00 72 1020.0
20220523162007 53 77 7.0 11.3 0.00 0.00 0.00 72 1020.2
20220523161507 53 93 7.8 9.6 0.00 0.00 0.00 72 1020.1
20220523161006 53 110 9.6 11.3 0.00 0.00 0.00 72 1020.3
20220523160505 53 101 8.7 11.3 0.00 0.00 0.00 73 1020.2
20220523160003 53 107 7.8 8.7 0.00 0.00 0.00 72 1020.3
20220523155502 53 130 7.8 8.7 0.00 0.00 0.00 73 1020.3
20220523155001 53 127 7.8 9.6 0.00 0.00 0.00 74 1020.4
20220523154459 53 118 6.1 12.2 0.00 0.00 0.00 75 1020.5
20220523153958 53 119 4.3 8.7 0.00 0.00 0.00 77 1020.4
20220523153458 53 69 7.8 12.2 0.00 0.00 0.00 75 1020.4
20220523152956 53 95 7.8 11.3 0.00 0.00 0.00 76 1020.4
20220523152454 52 104 7.8 11.3 0.00 0.00 0.00 77 1020.5
20220523151953 52 99 7.0 9.6 0.00 0.00 0.00 78 1020.7
20220523151451 51 85 7.8 9.6 0.00 0.00 0.00 79 1020.6
20220523150949 50 98 7.0 9.6 0.00 0.00 0.00 81 1020.7
20220523150448 50 101 6.1 13.0 0.00 0.00 0.00 82 1020.9
20220523145947 50 96 8.7 11.3 0.00 0.00 0.00 82 1021.0
20220523145445 49 128 7.0 8.7 0.00 0.00 0.00 82 1021.0
20220523144944 49 138 7.0 9.6 0.00 0.00 0.00 83 1020.9
20220523144443 48 107 7.0 8.7 0.00 0.00 0.00 85 1021.0
20220523143942 47 90 7.8 8.7 0.00 0.00 0.00 85 1020.6
20220523143441 47 93 7.0 8.7 0.00 0.00 0.00 86 1021.2
20220523142940 47 91 6.1 9.6 0.00 0.00 0.00 87 1021.1
20220523142439 46 138 7.8 11.3 0.00 0.00 0.00 88 1021.0
20220523141938 45 107 7.0 9.6 0.00 0.00 0.00 89 1021.0
20220523141439 45 100 7.0 9.6 0.00 0.00 0.00 89 1021.1
20220523140937 45 89 7.8 9.6 0.00 0.00 0.00 89 1021.3
20220523140436 45 101 7.8 9.6 0.00 0.00 0.00 90 1021.1
20220523135936 44 91 6.1 8.7 0.00 0.00 0.00 90 1021.2
20220523135437 44 84 6.1 8.7 0.00 0.00 0.00 90 1021.2
20220523134935 44 104 7.0 8.7 0.00 0.00 0.00 90 1021.2
20220523134434 44 92 6.1 8.7 0.00 0.00 0.00 91 1021.3
20220523133932 43 110 6.1 7.8 0.00 0.00 0.00 92 1021.3
20220523133432 43 95 6.1 9.6 0.00 0.00 0.00 92 1021.3
20220523132932 43 107 6.1 8.7 0.00 0.00 0.00 93 1021.2
20220523132430 43 93 4.3 7.8 0.00 0.00 0.00 92 1021.2
20220523131930 42 136 4.3 8.7 0.00 0.00 0.00 94 1021.3
20220523131429 42 109 7.0 7.8 0.00 0.00 0.00 94 1021.2
20220523130928 42 127 4.3 7.8 0.00 0.00 0.00 94 1020.9
20220523130427 42 108 6.1 8.7 0.00 0.00 0.00 95 1021.2
20220523125928 42 109 7.8 9.6 0.00 0.00 0.00 95 1021.0
20220523125426 42 112 7.0 9.6 0.00 0.00 0.00 95 1020.9
20220523124925 42 74 4.3 9.6 0.00 0.00 0.00 94 1021.1
20220523124423 42 124 6.1 8.7 0.00 0.00 0.00 94 1020.9
20220523123922 42 104 6.1 8.7 0.00 0.00 0.00 95 1021.2
20220523123421 42 103 7.0 9.6 0.00 0.00 0.00 95 1020.9
20220523122920 42 68 7.8 11.3 0.00 0.00 0.00 95 1021.1
20220523122419 42 109 8.7 11.3 0.00 0.00 0.00 94 1020.9
20220523121918 42 92 6.1 8.7 0.00 0.00 0.00 94 1021.0
20220523121417 42 97 7.8 11.3 0.00 0.00 0.00 94 1020.9
20220523120916 42 87 7.8 9.6 0.00 0.00 0.00 94 1020.9
20220523120414 42 106 8.7 11.3 0.00 0.00 0.00 94 1020.7
20220523115912 42 90 8.7 11.3 0.00 0.00 0.00 94 1020.6
20220523115411 43 104 7.0 9.6 0.00 0.00 0.00 93 1020.6
20220523114910 44 97 6.1 8.7 0.00 0.00 0.00 91 1021.0
20220523114408 44 109 7.8 9.6 0.00 0.00 0.00 91 1020.6
20220523113907 44 97 7.0 12.2 0.00 0.00 0.00 91 1020.9
20220523113406 43 92 7.8 12.2 0.00 0.00 0.00 93 1021.0
20220523112905 43 90 9.6 12.2 0.00 0.00 0.00 93 1020.9
20220523112405 43 82 7.8 12.2 0.00 0.00 0.00 92 1021.0
20220523111903 44 89 10.4 12.2 0.00 0.00 0.00 92 1020.9
20220523111402 44 78 7.8 12.2 0.00 0.00 0.00 92 1020.7
20220523110902 44 99 7.0 12.2 0.00 0.00 0.00 91 1020.7
20220523110401 45 92 7.0 12.2 0.00 0.00 0.00 91 1020.5
20220523105859 44 96 7.8 9.6 0.00 0.00 0.00 91 1020.7
20220523105358 44 96 8.7 11.3 0.00 0.00 0.00 91 1020.7
20220523104857 44 85 7.0 8.7 0.00 0.00 0.00 91 1020.7
20220523104356 44 90 7.8 12.2 0.00 0.00 0.00 91 1020.5
20220523103855 44 109 7.8 12.2 0.00 0.00 0.00 91 1020.7
20220523103354 44 75 7.8 11.3 0.00 0.00 0.00 91 1020.7
20220523102852 44 90 7.8 13.0 0.00 0.00 0.00 91 1020.6
20220523102352 44 81 7.8 11.3 0.00 0.00 0.00 91 1020.7
20220523101851 44 120 6.1 9.6 0.00 0.00 0.00 91 1021.0
20220523101351 45 87 8.7 9.6 0.00 0.00 0.00 89 1020.9
20220523100849 45 69 9.6 11.3 0.00 0.00 0.00 89 1021.0
20220523100350 45 95 9.6 15.6 0.00 0.00 0.00 89 1020.9
20220523095848 45 123 6.1 9.6 0.00 0.00 0.00 90 1020.9
20220523095348 45 148 5.2 9.6 0.00 0.00 0.00 90 1021.0
20220523094847 45 111 8.7 11.3 0.00 0.00 0.00 89 1021.1
20220523094348 46 87 7.0 9.6 0.00 0.00 0.00 89 1021.1
20220523093847 46 69 7.0 7.8 0.00 0.00 0.00 88 1021.2
20220523093346 46 81 6.1 8.7 0.00 0.00 0.00 88 1021.2
20220523092845 46 78 6.1 9.6 0.00 0.00 0.00 87 1021.1
20220523092344 46 106 7.0 7.8 0.00 0.00 0.00 88 1021.3
20220523091843 46 81 4.3 6.1 0.00 0.00 0.00 87 1021.3
20220523091342 46 79 3.5 7.8 0.00 0.00 0.00 87 1021.2
20220523090840 47 86 4.3 6.1 0.00 0.00 0.00 86 1021.3
20220523090339 47 84 5.2 7.0 0.00 0.00 0.00 86 1021.1
20220523085838 47 65 7.8 12.2 0.00 0.00 0.00 86 1021.2
20220523085337 47 123 7.0 11.3 0.00 0.00 0.00 84 1021.1
20220523084835 47 77 6.1 8.7 0.00 0.00 0.00 85 1021.0
20220523084335 47 92 6.1 8.7 0.00 0.00 0.00 85 1021.0
20220523083833 48 88 6.1 8.7 0.00 0.00 0.00 84 1021.2
20220523083333 48 84 5.2 7.0 0.00 0.00 0.00 83 1020.9
20220523082831 48 95 6.1 7.8 0.00 0.00 0.00 83 1021.2
20220523082330 48 92 6.1 9.6 0.00 0.00 0.00 82 1021.0
20220523081829 48 107 6.1 8.7 0.00 0.00 0.00 82 1021.2
20220523081327 48 96 6.1 9.6 0.00 0.00 0.00 82 1021.1
20220523080826 48 97 5.2 7.0 0.00 0.00 0.00 82 1021.1
20220523080325 48 123 2.6 7.0 0.00 0.00 0.00 82 1021.3
20220523075824 49 85 3.5 6.1 0.00 0.00 0.00 81 1021.3
20220523075322 49 65 2.6 5.2 0.00 0.00 0.00 80 1021.2
20220523074821 49 133 2.6 6.1 0.00 0.00 0.00 79 1021.2
20220523074320 50 101 3.5 5.2 0.00 0.00 0.00 78 1021.4
20220523073819 50 83 3.5 7.0 0.00 0.00 0.00 78 1021.1
20220523073317 50 98 4.3 11.3 0.00 0.00 0.00 77 1021.3
20220523072816 50 83 4.3 7.8 0.00 0.00 0.00 76 1021.0
20220523072316 48 87 6.1 7.8 0.00 0.00 0.00 80 1021.0
20220523071815 47 64 2.6 5.2 0.00 0.00 0.00 87 1021.4
20220523071314 51 71 4.3 6.1 0.00 0.00 0.00 76 1021.1
20220523070813 50 84 6.1 7.8 0.00 0.00 0.00 77 1021.2
20220523070311 51 99 4.3 6.1 0.00 0.00 0.00 78 1021.2
20220523065811 51 87 4.3 7.0 0.00 0.00 0.00 77 1021.3
20220523065311 51 81 7.0 7.8 0.00 0.00 0.00 75 1021.1
20220523064810 51 90 7.8 9.6 0.00 0.00 0.00 75 1021.3
20220523064309 51 121 7.8 8.7 0.00 0.00 0.00 76 1021.2
20220523063808 51 82 5.2 8.7 0.00 0.00 0.00 76 1020.9
20220523063307 51 94 5.2 9.6 0.00 0.00 0.00 75 1021.1
20220523062807 52 77 4.3 11.3 0.00 0.00 0.00 73 1021.1
20220523062306 51 94 7.0 8.7 0.00 0.00 0.00 74 1021.3
20220523061806 51 80 7.8 8.7 0.00 0.00 0.00 75 1021.0
20220523061306 51 101 5.2 7.8 0.00 0.00 0.00 76 1021.2
20220523060805 49 88 1.7 4.3 0.00 0.00 0.00 81 1021.3
20220523060304 49 81 0.9 5.2 0.00 0.00 0.00 83 1021.1
20220523055803 48 70 2.6 4.3 0.00 0.00 0.00 86 1021.2
20220523055302 50 77 2.6 4.3 0.00 0.00 0.00 83 1021.0
20220523054801 51 75 2.6 5.2 0.00 0.00 0.00 75 1021.4
20220523054300 51 63 2.6 7.0 0.00 0.00 0.00 77 1021.4
20220523053800 50 53 3.5 5.2 0.00 0.00 0.00 78 1021.4
20220523053259 51 87 3.5 4.3 0.00 0.00 0.00 76 1021.3
20220523052800 51 62 1.7 2.6 0.00 0.00 0.00 76 1021.5
20220523052258 52 74 3.5 4.3 0.00 0.00 0.00 75 1021.5
20220523051757 52 73 2.6 6.1 0.00 0.00 0.00 73 1021.4
20220523051256 53 80 3.5 5.2 0.00 0.00 0.00 74 1021.4
20220523050754 52 71 3.5 5.2 0.00 0.00 0.00 75 1021.5
20220523050254 51 70 4.3 5.2 0.00 0.00 0.00 76 1021.7
20220523045752 51 74 3.5 4.3 0.00 0.00 0.00 77 1021.5
20220523045253 51 58 1.7 2.6 0.00 0.00 0.00 78 1021.2
20220523044751 53 74 0.9 4.3 0.00 0.00 0.00 71 1021.2
20220523044251 53 56 1.7 2.6 0.00 0.00 0.00 70 1021.4
20220523043749 54 54 2.6 4.3 0.00 0.00 0.00 70 1021.2
20220523043248 54 77 3.5 5.2 0.00 0.00 0.00 68 1021.1
20220523042748 53 73 2.6 2.6 0.00 0.00 0.00 69 1021.2
20220523042246 54 69 1.7 2.6 0.00 0.00 0.00 67 1021.0
20220523041745 54 62 1.7 2.6 0.00 0.00 0.00 67 1021.1
20220523041243 54 81 2.6 4.3 0.00 0.00 0.00 67 1021.0
20220523040742 55 64 1.7 2.6 0.00 0.00 0.00 67 1021.1
20220523040240 55 54 1.7 2.6 0.00 0.00 0.00 67 1021.1
20220523035741 55 59 0.9 0.9 0.00 0.00 0.00 67 1020.9
20220523035239 56 66 1.7 1.7 0.00 0.00 0.00 65 1021.0
20220523034738 58 51 0.0 0.0 0.00 0.00 0.00 59 1020.6
20220523034237 58 347 1.7 1.7 0.00 0.00 0.00 57 1020.7
20220523033737 58 357 3.5 4.3 0.00 0.00 0.00 55 1020.6
20220523033236 58 22 1.7 4.3 0.00 0.00 0.00 56 1020.6
20220523032735 58 359 1.7 4.3 0.00 0.00 0.00 57 1020.6
20220523032234 58 40 1.7 5.2 0.00 0.00 0.00 57 1020.7
20220523031732 58 47 0.9 4.3 0.00 0.00 0.00 58 1020.7
20220523031231 59 2 2.6 5.2 0.00 0.00 0.00 57 1020.5
20220523030730 59 38 0.9 4.3 0.00 0.00 0.00 57 1020.7
20220523030229 59 38 2.6 5.2 0.00 0.00 0.00 59 1020.5
20220523025727 60 336 4.3 5.2 0.00 0.00 0.00 55 1020.4